Time;durP1;ratioP1;P1;durP2;ratioP2;P2;SDS_P1;SDS_P2;PMS_P1;PMS_P2;Temp;Humidity;BMP_temperature;BMP_pressure;BME280_temperature;BME280_humidity;BME280_pressure;Samples;Min_cycle;Max_cycle;Signal;HPM_P1;HPM_P2
2021/04/25 00:03:06;;;;;;;3.05;2.65;;;;;;;14.35;37.98;100487.78;2450885;80;25574;-74
2021/04/25 00:06:28;;;;;;;4.33;2.70;;;;;;;14.33;38.03;100485.56;2450295;80;25880;-72
2021/04/25 00:09:52;;;;;;;4.17;3.30;;;;;;;14.30;38.09;100485.52;2511262;77;25617;-73
2021/04/25 00:13:16;;;;;;;3.25;2.70;;;;;;;14.28;38.14;100484.22;2237386;88;25698;-74
2021/04/25 00:16:40;;;;;;;2.75;2.22;;;;;;;14.26;38.17;100481.99;2316676;85;25557;-72
2021/04/25 00:20:08;;;;;;;3.77;2.55;;;;;;;14.24;38.19;100473.25;2237403;88;25485;-71
2021/04/25 00:23:33;;;;;;;5.35;2.87;;;;;;;14.22;38.22;100470.16;2316641;85;25667;-72
2021/04/25 00:27:05;;;;;;;4.03;2.42;;;;;;;14.16;37.92;100457.42;2592711;76;29743;-74
2021/04/25 00:30:29;;;;;;;4.10;3.00;;;;;;;14.16;37.92;100457.42;2561974;77;25776;-72
2021/04/25 00:33:51;;;;;;;4.70;3.25;;;;;;;14.14;38.23;100461.78;2561821;77;25643;-73
2021/04/25 00:37:13;;;;;;;3.75;2.85;;;;;;;14.12;38.25;100457.38;2562162;77;25675;-74
2021/04/25 00:40:38;;;;;;;5.03;2.90;;;;;;;14.10;38.27;100460.41;2561635;77;25648;-75
2021/04/25 00:43:59;;;;;;;5.42;2.90;;;;;;;14.07;38.30;100451.20;2561755;76;25297;-75
2021/04/25 00:47:22;;;;;;;4.40;2.98;;;;;;;14.05;38.33;100450.32;2562046;77;25369;-72
2021/04/25 00:50:43;;;;;;;4.10;2.72;;;;;;;14.03;38.37;100452.03;2561846;77;25664;-72
2021/04/25 00:54:08;;;;;;;3.85;2.55;;;;;;;14.01;38.39;100451.16;2561976;77;25521;-73
2021/04/25 00:57:29;;;;;;;4.95;2.72;;;;;;;13.99;38.43;100451.13;2556615;77;25493;-75
2021/04/25 01:00:50;;;;;;;4.45;2.87;;;;;;;13.97;38.46;100451.96;2528743;77;25412;-74
2021/04/25 01:04:15;;;;;;;4.40;2.50;;;;;;;13.94;38.49;100448.91;2529023;77;25629;-74
2021/04/25 01:07:36;;;;;;;5.53;3.25;;;;;;;13.93;38.51;100447.13;2542174;77;25576;-73
2021/04/25 01:10:59;;;;;;;6.80;3.75;;;;;;;13.91;38.58;100441.88;2510279;78;25537;-73
2021/04/25 01:14:22;;;;;;;3.67;2.98;;;;;;;13.88;38.62;100443.15;2515231;78;25633;-74
2021/04/25 01:17:48;;;;;;;5.30;3.08;;;;;;;13.87;38.65;100444.42;2514411;78;25648;-73
2021/04/25 01:21:10;;;;;;;3.92;2.90;;;;;;;13.86;38.67;100443.98;2512455;78;25615;-73
2021/04/25 01:24:31;;;;;;;3.77;3.05;;;;;;;13.83;38.73;100434.78;2511147;78;25858;-71
2021/04/25 01:27:56;;;;;;;9.18;4.58;;;;;;;13.82;38.73;100438.27;2501617;79;25701;-71
2021/04/25 01:31:18;;;;;;;4.03;2.45;;;;;;;13.80;38.78;100433.00;2501611;79;25590;-73
2021/04/25 01:34:40;;;;;;;5.35;2.98;;;;;;;13.78;38.79;100427.31;2501634;78;25793;-74
2021/04/25 01:38:03;;;;;;;4.28;3.05;;;;;;;13.76;38.81;100423.34;2500909;79;25606;-72
2021/04/25 01:41:25;;;;;;;5.85;3.25;;;;;;;13.75;38.82;100415.05;2491716;79;25539;-74
2021/04/25 01:44:46;;;;;;;4.75;3.22;;;;;;;13.73;38.80;100408.90;2491403;79;25527;-73
2021/04/25 01:48:08;;;;;;;4.37;2.92;;;;;;;13.72;38.83;100412.83;2492452;79;25693;-71
2021/04/25 01:51:30;;;;;;;4.33;3.30;;;;;;;13.69;38.85;100414.54;2492287;79;25625;-72
2021/04/25 01:54:54;;;;;;;3.50;2.42;;;;;;;13.68;38.89;100410.61;2492128;78;25678;-73
2021/04/25 01:58:17;;;;;;;3.58;3.10;;;;;;;13.67;38.90;100410.17;2469843;79;25590;-73
2021/04/25 02:01:39;;;;;;;4.83;2.92;;;;;;;13.64;38.92;100408.38;2436823;79;25688;-75
2021/04/25 02:05:03;;;;;;;5.03;3.05;;;;;;;13.63;38.93;100407.91;2492194;78;25651;-73
2021/04/25 02:08:24;;;;;;;3.75;3.02;;;;;;;13.61;38.92;100407.03;2492224;79;25700;-74
2021/04/25 02:11:46;;;;;;;4.85;3.62;;;;;;;13.60;38.93;100407.00;2492578;79;25599;-73
2021/04/25 02:15:12;;;;;;;4.10;2.83;;;;;;;13.57;38.97;100407.87;2492521;79;25590;-73
2021/04/25 02:18:34;;;;;;;3.58;3.25;;;;;;;13.55;38.95;100404.77;2492335;79;25708;-72
2021/04/25 02:21:59;;;;;;;5.50;3.22;;;;;;;13.53;38.96;100404.73;2492239;79;25573;-72
2021/04/25 02:25:23;;;;;;;4.65;3.47;;;;;;;13.52;38.96;100403.42;2466400;79;25830;-72
2021/04/25 02:28:47;;;;;;;3.58;2.77;;;;;;;13.49;38.94;100402.95;2488418;79;25480;-71
2021/04/25 02:32:09;;;;;;;4.90;2.98;;;;;;;13.47;38.93;100404.69;2470251;79;25520;-73
2021/04/25 02:35:34;;;;;;;4.22;2.85;;;;;;;13.46;38.98;100400.30;2470049;79;25618;-74
2021/04/25 02:38:56;;;;;;;5.50;2.80;;;;;;;13.43;39.01;100407.70;2492410;79;25357;-75
2021/04/25 02:42:18;;;;;;;5.50;2.62;;;;;;;13.42;39.03;100408.54;2492470;79;25839;-72
2021/04/25 02:45:42;;;;;;;4.47;2.87;;;;;;;13.41;39.07;100405.92;2473194;79;25670;-72
2021/04/25 02:49:03;;;;;;;4.87;2.85;;;;;;;13.38;39.11;100407.19;2440834;79;25483;-74
2021/04/25 02:52:26;;;;;;;4.10;3.15;;;;;;;13.36;39.13;100401.91;2466820;79;26280;-75
2021/04/25 02:55:48;;;;;;;3.08;2.22;;;;;;;13.35;39.17;100400.16;2500752;79;25581;-73
2021/04/25 02:59:11;;;;;;;5.62;2.95;;;;;;;13.34;39.24;100398.42;2500752;79;25614;-72
2021/04/25 03:02:35;;;;;;;4.92;2.35;;;;;;;13.32;39.28;100402.73;2500659;79;25599;-72
2021/04/25 03:05:58;;;;;;;5.45;2.87;;;;;;;13.31;39.29;100398.81;2500716;79;25614;-73
2021/04/25 03:09:23;;;;;;;5.30;2.50;;;;;;;13.28;39.34;100400.08;2466551;79;25675;-72
2021/04/25 03:12:46;;;;;;;3.50;2.42;;;;;;;13.27;39.37;100396.58;2500820;78;25623;-72
2021/04/25 03:16:08;;;;;;;2.72;2.15;;;;;;;13.27;39.40;100398.33;2321676;84;25900;-73
2021/04/25 03:19:36;;;;;;;4.00;2.60;;;;;;;13.25;39.43;100396.11;2321930;85;25631;-74
2021/04/25 03:23:01;;;;;;;3.85;2.65;;;;;;;13.22;39.45;100399.52;2299225;85;25712;-74
2021/04/25 03:26:28;;;;;;;3.60;2.92;;;;;;;13.21;39.48;100399.08;2321886;85;25599;-71
2021/04/25 03:29:48;;;;;;;2.62;2.00;;;;;;;13.19;39.51;100392.50;2321649;85;25707;-72
2021/04/25 03:33:09;;;;;;;3.40;2.25;;;;;;;13.19;39.55;100395.55;2374578;79;25945;-73
2021/04/25 03:36:33;;;;;;;3.50;2.45;;;;;;;13.18;39.58;100397.73;2500450;79;25569;-73
2021/04/25 03:39:58;;;;;;;2.75;2.30;;;;;;;13.18;39.63;100397.73;2467015;79;25564;-71
2021/04/25 03:43:19;;;;;;;3.25;2.47;;;;;;;13.17;39.64;100395.98;2466645;79;25622;-72
2021/04/25 03:46:46;;;;;;;3.02;2.37;;;;;;;13.17;39.68;100392.93;2466921;79;25653;-71
2021/04/25 03:50:09;;;;;;;4.67;2.92;;;;;;;13.17;39.66;100393.36;2500707;79;25436;-73
2021/04/25 03:53:33;;;;;;;2.83;1.98;;;;;;;13.17;39.70;100389.44;2500541;79;25768;-74
2021/04/25 03:56:54;;;;;;;4.08;2.65;;;;;;;13.17;39.75;100395.55;2500514;79;25698;-73
2021/04/25 04:00:22;;;;;;;3.17;2.55;;;;;;;13.18;39.78;100390.75;2500646;79;25354;-73
2021/04/25 04:03:46;;;;;;;2.45;1.98;;;;;;;13.19;39.81;100399.48;2500607;79;25600;-74
2021/04/25 04:07:12;;;;;;;3.60;2.15;;;;;;;13.21;39.82;100396.47;2455392;80;25972;-73
2021/04/25 04:10:40;;;;;;;3.47;2.30;;;;;;;13.21;39.83;100393.41;2377686;81;25464;-71
2021/04/25 04:14:06;;;;;;;4.05;2.52;;;;;;;13.25;39.87;100398.72;2396757;82;25614;-73
2021/04/25 04:17:27;;;;;;;3.37;2.22;;;;;;;13.29;39.83;100397.90;2332390;84;25633;-72
2021/04/25 04:20:51;;;;;;;2.98;2.50;;;;;;;13.32;39.84;100401.44;2347622;84;25612;-75
2021/04/25 04:24:12;;;;;;;5.50;3.37;;;;;;;13.36;39.86;100401.04;2360523;83;25441;-75
2021/04/25 04:27:34;;;;;;;5.80;2.55;;;;;;;13.41;39.84;100408.10;2392897;81;25820;-73
2021/04/25 04:30:55;;;;;;;3.95;2.72;;;;;;;13.45;39.83;100410.33;2406669;81;25767;-73
2021/04/25 04:34:19;;;;;;;4.37;2.92;;;;;;;13.50;39.83;100411.68;2432192;80;26318;-74
2021/04/25 04:37:44;;;;;;;7.97;3.52;;;;;;;13.56;39.84;100415.69;2432130;81;25639;-74
2021/04/25 04:41:06;;;;;;;4.08;2.83;;;;;;;13.61;39.88;100413.58;2432423;81;25227;-73
2021/04/25 04:44:30;;;;;;;4.37;3.27;;;;;;;13.68;39.94;100419.78;2386244;80;25536;-71
2021/04/25 04:47:58;;;;;;;4.22;3.42;;;;;;;13.74;39.91;100421.59;2410384;81;25678;-74
2021/04/25 04:51:21;;;;;;;4.80;3.40;;;;;;;13.80;40.03;100417.27;2432130;81;25577;-73
2021/04/25 04:54:45;;;;;;;5.85;3.92;;;;;;;13.90;40.27;100419.56;2432361;81;25555;-73
2021/04/25 04:58:07;;;;;;;4.80;3.02;;;;;;;13.94;40.49;100422.70;2410329;81;25803;-74
2021/04/25 05:01:32;;;;;;;6.28;3.58;;;;;;;13.92;40.64;100423.09;2432308;80;25708;-76
2021/04/25 05:04:57;;;;;;;5.87;3.60;;;;;;;13.96;40.73;100429.25;2432112;80;32545;-72
2021/04/25 05:08:20;;;;;;;5.80;3.30;;;;;;;14.03;40.87;100423.20;2432176;81;25527;-73
2021/04/25 05:11:43;;;;;;;6.37;3.27;;;;;;;14.11;41.11;100417.19;2432000;80;25538;-76
2021/04/25 05:15:10;;;;;;;4.67;3.25;;;;;;;14.16;41.27;100418.09;2432370;80;25390;-72
2021/04/25 05:18:34;;;;;;;4.15;3.62;;;;;;;14.23;41.33;100426.02;2432393;80;25628;-74
2021/04/25 05:22:08;;;;;;;4.10;3.00;;;;;;;14.31;41.23;100418.69;2432248;81;25282;-72
2021/04/25 05:25:39;;;;;;;4.45;3.75;;;;;;;14.36;41.19;100422.21;2432272;80;25486;-73
2021/04/25 05:29:06;;;;;;;4.45;3.52;;;;;;;14.43;41.15;100416.58;2432363;81;25509;-74
2021/04/25 05:32:33;;;;;;;3.70;2.87;;;;;;;14.50;41.03;100414.48;2432479;80;25601;-73
2021/04/25 05:35:57;;;;;;;4.58;3.00;;;;;;;14.55;40.86;100414.11;2432618;81;25576;-73
2021/04/25 05:39:20;;;;;;;4.80;3.05;;;;;;;14.60;40.69;100409.76;2432481;81;25516;-72
2021/04/25 05:42:42;;;;;;;3.87;3.17;;;;;;;14.66;40.57;100410.69;2432483;81;25613;-74
2021/04/25 05:46:16;;;;;;;4.03;2.40;;;;;;;14.71;40.44;100419.02;2432538;81;25560;-75
2021/04/25 05:49:40;;;;;;;2.77;2.37;;;;;;;14.76;40.22;100413.82;2432326;81;25540;-75
2021/04/25 05:53:03;;;;;;;6.00;2.92;;;;;;;14.78;40.13;100419.53;2432000;80;25666;-73
2021/04/25 05:56:24;;;;;;;2.20;1.98;;;;;;;14.82;39.95;100413.87;2432224;81;25640;-73
2021/04/25 05:59:48;;;;;;;2.45;1.75;;;;;;;14.84;39.83;100416.05;2432989;81;25688;-72
2021/04/25 06:03:09;;;;;;;3.25;2.20;;;;;;;14.87;39.71;100416.08;2415679;81;25634;-75
2021/04/25 06:06:33;;;;;;;3.42;1.85;;;;;;;14.90;39.65;100416.09;2433910;81;25532;-73
2021/04/25 06:09:57;;;;;;;5.42;2.10;;;;;;;14.93;39.59;100410.88;2434231;81;25615;-76
2021/04/25 06:13:29;;;;;;;2.58;1.50;;;;;;;14.96;39.48;100412.64;2434285;81;25429;-72
2021/04/25 06:16:53;;;;;;;3.52;2.10;;;;;;;14.96;39.42;100412.64;2433958;81;25561;-75
2021/04/25 06:20:23;;;;;;;4.78;2.33;;;;;;;14.99;39.36;100413.98;2434463;81;25660;-76
2021/04/25 06:23:46;;;;;;;;;;;;;;;15.02;39.18;100410.06;2215856;88;25788;-72
2021/04/25 06:27:12;;;;;;;2.50;1.82;;;;;;;16.95;38.40;100405.23;2246493;87;25475;-75
2021/04/25 06:30:40;;;;;;;2.08;1.42;;;;;;;19.94;35.78;100409.02;2236883;88;25738;-74
2021/04/25 06:34:04;;;;;;;1.92;1.37;;;;;;;22.11;33.09;100417.38;2259446;86;25662;-73
2021/04/25 06:37:26;;;;;;;1.50;1.12;;;;;;;23.30;31.19;100413.94;2236869;86;25765;-74
2021/04/25 06:40:53;;;;;;;2.05;1.55;;;;;;;24.77;29.54;100421.83;2332133;80;25639;-72
2021/04/25 06:44:19;;;;;;;1.95;1.30;;;;;;;26.39;27.97;100430.44;2449855;80;25671;-74
2021/04/25 06:47:41;;;;;;;1.30;1.17;;;;;;;27.97;26.21;100432.42;2447949;80;25657;-74
2021/04/25 06:51:03;;;;;;;1.32;1.12;;;;;;;29.31;24.81;100438.69;2449878;80;25638;-75
2021/04/25 06:54:28;;;;;;;0.90;0.90;;;;;;;30.48;23.61;100447.91;2450618;80;25793;-75
2021/04/25 06:57:51;;;;;;;1.95;1.25;;;;;;;31.54;22.64;100452.34;2450127;80;25544;-76
2021/04/25 07:01:13;;;;;;;1.67;1.32;;;;;;;32.54;21.76;100452.70;2450618;79;25365;-75
2021/04/25 07:04:47;;;;;;;1.25;0.88;;;;;;;33.50;20.95;100460.07;2491481;79;25395;-74
2021/04/25 07:08:13;;;;;;;1.40;0.90;;;;;;;34.37;20.27;100461.84;2397087;82;25810;-76
2021/04/25 07:11:45;;;;;;;1.20;1.10;;;;;;;35.15;19.83;100463.19;2395879;81;25682;-75
2021/04/25 07:15:25;;;;;;;1.22;1.00;;;;;;;36.00;19.23;100464.11;2601604;75;25594;-75
2021/04/25 07:18:51;;;;;;;0.98;0.88;;;;;;;36.55;18.80;100468.62;2563441;77;25656;-76
2021/04/25 07:22:14;;;;;;;1.10;0.80;;;;;;;36.93;18.58;100464.98;2563090;77;25585;-75
2021/04/25 07:25:43;;;;;;;1.15;0.85;;;;;;;36.93;18.63;100463.13;2341814;84;25301;-76
2021/04/25 07:29:12;;;;;;;1.00;1.00;;;;;;;37.03;18.73;100459.16;2342235;84;25778;-77
2021/04/25 07:32:51;;;;;;;0.80;0.80;;;;;;;37.51;18.58;100463.54;2338501;84;26058;-76
2021/04/25 07:36:15;;;;;;;0.70;0.70;;;;;;;38.24;18.43;100471.06;2341608;83;25907;-75
2021/04/25 07:39:43;;;;;;;1.30;0.80;;;;;;;39.41;17.90;100473.30;2342098;84;25740;-75
2021/04/25 07:43:10;;;;;;;0.78;0.78;;;;;;;39.41;17.90;100473.30;2435669;77;25834;-76
2021/04/25 07:46:37;;;;;;;0.82;0.82;;;;;;;39.89;17.50;100471.41;2560328;77;25660;-76
2021/04/25 07:50:04;;;;;;;1.15;0.80;;;;;;;40.36;17.39;100480.86;2485411;78;25718;-75
2021/04/25 07:54:24;;;;;;;1.52;0.70;;;;;;;40.87;17.06;100467.53;2464210;78;25699;-75
2021/04/25 07:57:54;;;;;;;0.90;0.72;;;;;;;41.19;17.05;100476.03;2409501;81;25694;-76
2021/04/25 08:01:32;;;;;;;0.70;0.70;;;;;;;41.62;16.92;100472.05;2406663;82;25735;-77
2021/04/25 08:08:49;;;;;;;0.55;0.55;;;;;;;42.44;16.48;100465.02;2492385;77;26216;-76
2021/04/25 08:12:17;;;;;;;0.68;0.60;;;;;;;42.73;16.44;100465.95;2455454;80;25654;-77
2021/04/25 08:15:45;;;;;;;0.68;0.60;;;;;;;43.05;16.37;100471.06;2427987;80;25653;-76
2021/04/25 08:19:17;;;;;;;0.70;0.68;;;;;;;43.37;16.26;100468.79;2260729;86;25686;-76
2021/04/25 08:22:40;;;;;;;0.50;0.50;;;;;;;43.71;16.14;100465.83;2261659;86;25736;-78
2021/04/25 08:26:06;;;;;;;1.30;0.55;;;;;;;44.01;16.15;100466.92;2256071;87;25489;-80
2021/04/25 08:29:41;;;;;;;;;;;;;;;;;;;;;
2021/04/25 08:33:26;;;;;;;0.50;0.50;;;;;;;44.41;15.97;100459.99;2605451;76;25490;-77
2021/04/25 08:40:49;;;;;;;1.05;0.60;;;;;;;40.37;17.86;100444.35;2223710;88;25520;-75
2021/04/25 08:48:44;;;;;;;0.72;0.72;;;;;;;40.97;18.40;100438.22;2551589;77;27018;-74
2021/04/25 08:52:56;;;;;;;0.50;0.40;;;;;;;39.39;19.04;100425.38;2363716;83;25646;-75
2021/04/25 08:56:33;;;;;;;0.93;0.70;;;;;;;37.59;20.21;100422.05;2181833;90;25820;-76
2021/04/25 09:00:59;;;;;;;0.78;0.60;;;;;;;37.09;21.38;100416.00;2492382;78;25967;-76
2021/04/25 09:04:41;;;;;;;;;;;;;;;;;;;;;
2021/04/25 09:08:05;;;;;;;1.10;0.62;;;;;;;38.34;20.90;100421.17;2303939;84;25798;-74
2021/04/25 09:11:43;;;;;;;0.60;0.53;;;;;;;37.38;21.37;100409.84;2300021;84;26270;-74
2021/04/25 09:15:58;;;;;;;0.47;0.47;;;;;;;37.25;21.84;100395.60;2534545;77;25525;-74
2021/04/25 09:19:27;;;;;;;0.65;0.50;;;;;;;36.83;22.05;100401.92;2490796;78;25874;-74
2021/04/25 09:22:52;;;;;;;0.78;0.50;;;;;;;35.87;22.63;100395.06;2419913;80;25567;-76
2021/04/25 09:26:17;;;;;;;;;;;;;;;34.89;23.40;100400.16;2371188;81;26156;-75
2021/04/25 09:30:04;;;;;;;2.02;0.50;;;;;;;33.97;24.20;100388.16;2364819;81;25659;-74
2021/04/25 09:33:27;;;;;;;0.40;0.40;;;;;;;33.04;24.82;100379.52;2415251;81;25750;-75
2021/04/25 09:37:00;;;;;;;0.78;0.60;;;;;;;32.14;25.64;100383.33;2390726;82;25744;-74
2021/04/25 09:40:34;;;;;;;0.60;0.50;;;;;;;31.40;26.33;100374.21;2396595;81;25704;-79
2021/04/25 09:44:15;;;;;;;1.30;0.50;;;;;;;30.71;27.08;100367.62;2400600;81;25674;-73
2021/04/25 09:56:51;;;;;;;;;;;;;;;;;;;;;
2021/04/25 10:00:48;;;;;;;0.80;0.60;;;;;;;29.97;28.75;100363.89;2483583;79;25616;-74
2021/04/25 10:04:47;;;;;;;0.60;0.60;;;;;;;30.64;28.53;100366.27;2477011;78;25867;-76
2021/04/25 10:08:35;;;;;;;0.72;0.57;;;;;;;30.63;28.40;100365.89;2439137;78;25704;-73
2021/04/25 10:12:37;;;;;;;0.75;0.50;;;;;;;30.39;28.43;100361.50;2195056;87;25638;-74
2021/04/25 10:16:26;;;;;;;1.37;0.42;;;;;;;30.10;28.76;100364.02;2544836;77;25910;-75
2021/04/25 10:20:52;;;;;;;0.68;0.50;;;;;;;29.75;28.90;100364.71;2389076;82;25740;-75
2021/04/25 10:24:19;;;;;;;0.30;0.30;;;;;;;29.32;29.14;100366.57;2395444;80;25728;-75
2021/04/25 10:27:56;;;;;;;0.98;0.53;;;;;;;29.06;29.51;100351.00;2351655;84;25631;-76
2021/04/25 10:31:33;;;;;;;0.62;0.40;;;;;;;28.80;29.71;100360.42;2409215;81;25652;-76
2021/04/25 10:35:22;;;;;;;0.90;0.60;;;;;;;28.82;29.86;100361.19;2348206;83;25654;-75
2021/04/25 10:38:44;;;;;;;0.80;0.65;;;;;;;28.67;29.98;100364.21;2420144;81;25326;-75
2021/04/25 10:57:09;;;;;;;0.70;0.50;;;;;;;27.61;30.65;100381.45;2605324;75;25471;-77
2021/04/25 11:00:42;;;;;;;0.98;0.57;;;;;;;27.26;30.59;100382.59;2565002;77;25508;-76
2021/04/25 11:04:17;;;;;;;1.85;0.93;;;;;;;27.15;30.50;100384.89;2564848;77;25375;-74
2021/04/25 11:07:50;;;;;;;2.75;0.85;;;;;;;27.03;29.94;100390.75;2530925;77;25220;-74
2021/04/25 11:11:40;;;;;;;4.37;0.88;;;;;;;26.97;29.65;100391.91;2581556;75;25551;-76
2021/04/25 11:15:50;;;;;;;2.90;0.72;;;;;;;26.79;29.48;100396.70;2332246;84;25469;-76
2021/04/25 11:19:24;;;;;;;2.45;1.00;;;;;;;26.52;29.66;100402.77;2331412;83;25407;-75
2021/04/25 11:22:55;;;;;;;1.95;0.75;;;;;;;26.47;28.54;100402.08;2308006;84;25760;-76
2021/04/25 11:26:43;;;;;;;1.87;1.00;;;;;;;26.59;28.09;100394.89;2257495;86;26174;-73
2021/04/25 11:30:07;;;;;;;1.72;1.00;;;;;;;26.89;28.22;100413.23;2257617;86;25348;-74
2021/04/25 11:33:33;;;;;;;3.35;0.95;;;;;;;27.18;28.30;100395.94;2411493;80;25787;-75
2021/04/25 11:37:09;;;;;;;3.15;0.60;;;;;;;27.50;28.20;100401.14;2348481;83;26202;-78
2021/04/25 11:40:33;;;;;;;1.35;0.78;;;;;;;27.73;28.14;100400.08;2379339;81;25787;-75
2021/04/25 11:44:04;;;;;;;2.65;0.88;;;;;;;27.85;28.16;100398.20;2419185;81;25799;-77
2021/04/25 11:47:35;;;;;;;1.40;0.57;;;;;;;28.12;28.00;100399.15;2364029;83;25722;-77
2021/04/25 11:50:57;;;;;;;0.90;0.60;;;;;;;28.32;27.82;100401.71;2368460;83;25759;-76
2021/04/25 11:54:21;;;;;;;1.42;0.80;;;;;;;28.63;27.61;100393.49;2399406;78;25859;-75
2021/04/25 11:57:57;;;;;;;1.25;0.70;;;;;;;28.75;27.35;100392.84;2479996;78;25734;-76
2021/04/25 12:01:25;;;;;;;1.17;0.75;;;;;;;28.76;27.21;100392.39;2480426;78;25898;-78
2021/04/25 12:05:01;;;;;;;3.08;0.60;;;;;;;28.91;27.09;100389.76;2511957;78;25699;-78
2021/04/25 12:08:25;;;;;;;0.70;0.60;;;;;;;29.06;26.81;100390.81;2506714;78;25186;-76
2021/04/25 12:11:53;;;;;;;1.25;0.50;;;;;;;29.10;26.52;100377.62;2505522;78;25636;-78
2021/04/25 12:15:18;;;;;;;0.70;0.50;;;;;;;28.84;26.41;100384.80;2503925;79;25687;-78
2021/04/25 12:18:43;;;;;;;2.37;0.50;;;;;;;28.47;26.44;100386.21;2505778;77;25601;-78
2021/04/25 12:22:08;;;;;;;0.70;0.50;;;;;;;28.04;26.04;100384.76;2507414;78;25717;-76
2021/04/25 12:25:34;;;;;;;0.72;0.72;;;;;;;27.53;25.63;100391.63;2504224;78;25667;-77
2021/04/25 12:28:59;;;;;;;1.67;0.57;;;;;;;27.22;25.39;100392.17;2490222;79;25629;-78
2021/04/25 12:32:27;;;;;;;1.80;0.45;;;;;;;27.20;25.58;100389.59;2424430;81;25640;-77
2021/04/25 12:35:52;;;;;;;2.43;0.60;;;;;;;27.28;25.50;100390.09;2461019;78;25817;-78
2021/04/25 12:39:23;;;;;;;0.62;0.50;;;;;;;27.56;25.00;100383.45;2424061;81;25516;-78
2021/04/25 12:42:45;;;;;;;1.30;0.60;;;;;;;27.95;24.56;100394.13;2394858;81;25703;-77
2021/04/25 12:46:25;;;;;;;0.33;0.33;;;;;;;28.05;24.15;100395.03;2352260;83;25635;-78
2021/04/25 12:49:50;;;;;;;0.78;0.35;;;;;;;27.89;23.95;100394.42;2424196;81;25605;-77
2021/04/25 12:53:22;;;;;;;0.65;0.35;;;;;;;27.66;23.77;100384.77;2351810;83;25739;-78
2021/04/25 12:56:56;;;;;;;1.35;0.50;;;;;;;27.48;23.68;100385.64;2396145;81;26341;-77
2021/04/25 13:00:29;;;;;;;0.85;0.60;;;;;;;27.32;23.55;100377.44;2421955;81;25654;-77
2021/04/25 13:03:53;;;;;;;1.07;0.40;;;;;;;27.20;23.45;100377.98;2421239;81;25631;-76
2021/04/25 13:07:41;;;;;;;1.30;0.72;;;;;;;27.02;23.33;100376.50;2421615;81;25649;-76
2021/04/25 13:11:37;;;;;;;0.40;0.30;;;;;;;26.84;23.24;100375.99;2421686;81;25644;-77
2021/04/25 13:15:11;;;;;;;0.70;0.50;;;;;;;26.60;23.09;100373.45;2421906;81;25644;-76
2021/04/25 13:18:38;;;;;;;3.02;0.50;;;;;;;26.41;23.09;100375.59;2421756;81;25571;-77
2021/04/25 13:22:03;;;;;;;0.65;0.50;;;;;;;26.26;23.00;100376.64;2421908;80;25662;-77
2021/04/25 13:25:34;;;;;;;0.40;0.30;;;;;;;26.10;22.78;100378.20;2395592;81;25738;-77
2021/04/25 13:28:56;;;;;;;0.60;0.50;;;;;;;25.97;22.89;100375.63;2421589;81;25194;-76
2021/04/25 13:32:23;;;;;;;0.72;0.40;;;;;;;25.83;22.69;100379.70;2421675;81;25560;-76
2021/04/25 13:35:49;;;;;;;1.17;0.40;;;;;;;25.70;22.79;100371.73;2421179;81;25698;-76
2021/04/25 13:39:13;;;;;;;1.00;0.50;;;;;;;25.62;22.87;100365.84;2421842;80;25573;-78
2021/04/25 13:42:34;;;;;;;1.20;0.70;;;;;;;25.62;22.74;100366.70;2421757;81;25783;-76
2021/04/25 13:46:03;;;;;;;1.30;0.50;;;;;;;25.62;22.83;100368.04;2421791;81;26247;-76
2021/04/25 13:49:25;;;;;;;3.17;0.60;;;;;;;25.62;22.80;100366.70;2421846;81;26316;-77
2021/04/25 13:52:49;;;;;;;0.60;0.60;;;;;;;25.71;22.82;100355.25;2421822;81;25683;-78
2021/04/25 13:56:13;;;;;;;1.30;0.50;;;;;;;25.70;22.83;100362.39;2422714;79;25902;-77
2021/04/25 13:59:34;;;;;;;0.70;0.50;;;;;;;25.55;22.85;100361.20;2461161;80;25675;-77
2021/04/25 14:03:02;;;;;;;0.78;0.57;;;;;;;25.39;22.83;100354.23;2464446;80;25629;-77
2021/04/25 14:06:26;;;;;;;1.20;0.60;;;;;;;25.21;23.00;100352.25;2464453;80;26237;-78
2021/04/25 14:09:47;;;;;;;0.50;0.45;;;;;;;25.06;22.78;100355.00;2462326;79;25684;-78
2021/04/25 14:13:09;;;;;;;1.32;0.70;;;;;;;24.97;22.68;100355.32;2464634;80;25627;-78
2021/04/25 14:16:34;;;;;;;4.53;0.62;;;;;;;25.08;22.97;100350.95;2464326;80;25653;-77
2021/04/25 14:20:12;;;;;;;1.17;0.60;;;;;;;25.14;22.73;100348.06;2461069;78;25760;-76
2021/04/25 14:23:45;;;;;;;2.37;0.70;;;;;;;25.17;22.51;100344.82;2464660;80;25635;-76
2021/04/25 14:27:11;;;;;;;1.05;0.70;;;;;;;25.12;22.42;100335.27;2464298;80;25794;-77
2021/04/25 14:30:34;;;;;;;1.70;0.70;;;;;;;25.02;22.25;100337.84;2464776;80;25583;-78
2021/04/25 14:33:56;;;;;;;0.90;0.70;;;;;;;24.78;22.26;100336.94;2464508;80;25170;-78
2021/04/25 14:37:18;;;;;;;1.07;0.60;;;;;;;24.53;22.36;100335.58;2464670;80;25618;-76
2021/04/25 14:40:42;;;;;;;0.90;0.80;;;;;;;24.28;22.43;100333.26;2464598;80;25642;-77
2021/04/25 14:44:08;;;;;;;2.70;0.57;;;;;;;24.05;22.55;100347.80;2464557;80;25573;-77
2021/04/25 14:47:35;;;;;;;1.15;0.60;;;;;;;23.84;22.57;100338.72;2464548;80;25634;-75
2021/04/25 14:50:56;;;;;;;0.78;0.57;;;;;;;23.67;22.54;100345.00;2464585;80;25603;-77
2021/04/25 14:54:19;;;;;;;0.90;0.70;;;;;;;23.51;22.55;100340.12;2464899;79;25640;-80
2021/04/25 14:57:45;;;;;;;1.05;0.75;;;;;;;23.37;22.45;100347.66;2464439;79;25543;-78
2021/04/25 15:01:06;;;;;;;4.15;0.60;;;;;;;23.25;22.41;100345.35;2464737;80;25498;-77
2021/04/25 15:04:37;;;;;;;1.98;0.80;;;;;;;23.26;22.27;100348.45;2464216;80;25880;-78
2021/04/25 15:08:07;;;;;;;0.65;0.65;;;;;;;23.20;22.17;100344.63;2464307;79;25709;-76
2021/04/25 15:11:51;;;;;;;1.17;0.70;;;;;;;23.15;22.10;100342.55;2464898;80;25812;-77
2021/04/25 15:15:31;;;;;;;;;;;;;;;;;;;;;
2021/04/25 15:19:14;;;;;;;1.55;0.57;;;;;;;22.92;22.11;100344.52;2557372;77;25553;-77
2021/04/25 15:22:44;;;;;;;1.20;0.62;;;;;;;22.60;22.24;100346.25;2486586;78;25622;-77
2021/04/25 15:26:09;;;;;;;2.47;0.62;;;;;;;22.31;22.41;100357.19;2465101;79;25785;-78
2021/04/25 15:29:48;;;;;;;1.75;0.70;;;;;;;22.09;22.49;100350.16;2434140;80;25630;-78
2021/04/25 15:33:15;;;;;;;1.45;0.78;;;;;;;21.84;22.66;100365.80;2464968;79;25464;-76
2021/04/25 15:36:44;;;;;;;2.33;0.70;;;;;;;21.60;22.92;100365.90;2409641;80;25726;-75
2021/04/25 15:40:10;;;;;;;2.27;0.93;;;;;;;21.33;23.11;100369.98;2465091;80;25737;-78
2021/04/25 15:43:47;;;;;;;1.32;1.02;;;;;;;21.05;23.30;100368.78;2433122;80;25503;-76
2021/04/25 15:47:18;;;;;;;1.45;1.10;;;;;;;20.81;23.48;100387.34;2464208;79;26071;-77
2021/04/25 15:50:51;;;;;;;1.98;0.78;;;;;;;20.52;23.74;100400.67;2465021;80;25754;-78
2021/04/25 15:54:42;;;;;;;2.58;0.95;;;;;;;20.31;24.07;100386.41;2464133;80;25520;-78
2021/04/25 15:58:14;;;;;;;1.32;0.95;;;;;;;20.17;24.35;100394.57;2425402;80;25676;-77
2021/04/25 16:01:47;;;;;;;1.47;0.80;;;;;;;20.11;24.62;100386.27;2358246;83;25555;-78
2021/04/25 16:05:22;;;;;;;1.35;0.95;;;;;;;20.10;24.70;100386.30;2301361;84;25788;-77
2021/04/25 16:08:52;;;;;;;1.50;0.90;;;;;;;20.01;24.81;100385.98;2355249;81;25677;-77
2021/04/25 16:17:51;;;;;;;1.65;0.93;;;;;;;19.67;25.05;100391.75;2496953;76;25820;-77
2021/04/25 16:21:22;;;;;;;1.87;0.68;;;;;;;19.45;25.48;100387.62;2454524;77;25658;-77
2021/04/25 16:24:49;;;;;;;1.85;0.78;;;;;;;19.34;26.10;100387.31;2476421;79;25677;-77
2021/04/25 16:28:29;;;;;;;0.93;0.55;;;;;;;19.29;26.70;100393.09;2473318;78;26014;-76
2021/04/25 16:31:52;;;;;;;0.70;0.53;;;;;;;19.25;27.28;100403.28;2474550;79;25673;-78
2021/04/25 16:35:23;;;;;;;1.57;0.60;;;;;;;19.19;27.80;100407.30;2474458;78;25792;-76
2021/04/25 16:38:52;;;;;;;1.98;0.80;;;;;;;19.14;28.25;100409.14;2473040;79;25601;-77
2021/04/25 16:42:22;;;;;;;3.47;0.80;;;;;;;19.09;28.66;100406.98;2474565;77;25642;-77
2021/04/25 16:45:48;;;;;;;2.15;0.80;;;;;;;19.04;29.09;100406.17;2524519;77;25700;-77
2021/04/25 16:49:14;;;;;;;1.35;0.80;;;;;;;18.99;29.40;100407.97;2532479;77;25624;-77
2021/04/25 16:52:36;;;;;;;1.05;0.70;;;;;;;18.93;29.74;100409.34;2532256;78;25633;-77
2021/04/25 16:56:00;;;;;;;1.87;0.82;;;;;;;18.87;30.02;100407.66;2508670;77;26264;-74
2021/04/25 16:59:27;;;;;;;1.10;0.50;;;;;;;18.82;30.31;100411.66;2501534;77;26277;-79
2021/04/25 17:02:55;;;;;;;0.75;0.72;;;;;;;18.78;30.59;100410.39;2523941;77;26304;-79